sensor_id;sensor_type;location;lat;lon;timestamp;temperature;humidity
2226;DHT22;1119;48.288;8.726;2023-07-24T00:00:09;21.80;62.50
2226;DHT22;1119;48.288;8.726;2023-07-24T00:02:37;21.80;62.20
2226;DHT22;1119;48.288;8.726;2023-07-24T00:05:05;21.70;62.40
2226;DHT22;1119;48.288;8.726;2023-07-24T00:07:33;21.70;62.70
2226;DHT22;1119;48.288;8.726;2023-07-24T00:10:00;21.60;62.80
2226;DHT22;1119;48.288;8.726;2023-07-24T00:12:28;21.60;63.00
2226;DHT22;1119;48.288;8.726;2023-07-24T00:14:55;21.50;63.20
2226;DHT22;1119;48.288;8.726;2023-07-24T00:17:24;21.60;63.30
2226;DHT22;1119;48.288;8.726;2023-07-24T00:19:52;21.50;63.10
2226;DHT22;1119;48.288;8.726;2023-07-24T00:22:19;21.50;63.70
2226;DHT22;1119;48.288;8.726;2023-07-24T00:24:46;21.60;63.50
2226;DHT22;1119;48.288;8.726;2023-07-24T00:27:14;21.50;63.50
2226;DHT22;1119;48.288;8.726;2023-07-24T00:29:41;21.50;63.70
2226;DHT22;1119;48.288;8.726;2023-07-24T00:32:09;21.50;65.00
2226;DHT22;1119;48.288;8.726;2023-07-24T00:34:37;21.50;64.90
2226;DHT22;1119;48.288;8.726;2023-07-24T00:37:05;21.40;64.20
2226;DHT22;1119;48.288;8.726;2023-07-24T00:39:32;21.40;64.80
2226;DHT22;1119;48.288;8.726;2023-07-24T00:42:00;21.30;64.60
2226;DHT22;1119;48.288;8.726;2023-07-24T00:44:28;21.30;64.70
2226;DHT22;1119;48.288;8.726;2023-07-24T00:46:55;21.30;64.90
2226;DHT22;1119;48.288;8.726;2023-07-24T00:49:22;21.20;65.20
2226;DHT22;1119;48.288;8.726;2023-07-24T00:51:52;21.20;65.10
2226;DHT22;1119;48.288;8.726;2023-07-24T00:54:19;21.20;65.40
2226;DHT22;1119;48.288;8.726;2023-07-24T00:56:50;21.10;65.80
2226;DHT22;1119;48.288;8.726;2023-07-24T00:59:18;21.10;65.90
2226;DHT22;1119;48.288;8.726;2023-07-24T01:01:46;21.10;65.90
2226;DHT22;1119;48.288;8.726;2023-07-24T01:04:14;21.10;66.00
2226;DHT22;1119;48.288;8.726;2023-07-24T01:06:42;21.00;66.20
2226;DHT22;1119;48.288;8.726;2023-07-24T01:09:10;20.90;66.60
2226;DHT22;1119;48.288;8.726;2023-07-24T01:11:42;20.90;66.50
2226;DHT22;1119;48.288;8.726;2023-07-24T01:14:17;20.80;67.00
2226;DHT22;1119;48.288;8.726;2023-07-24T01:16:48;20.80;67.40
2226;DHT22;1119;48.288;8.726;2023-07-24T01:19:20;20.80;66.90
2226;DHT22;1119;48.288;8.726;2023-07-24T01:22:14;20.80;66.90
2226;DHT22;1119;48.288;8.726;2023-07-24T01:25:01;20.90;67.40
2226;DHT22;1119;48.288;8.726;2023-07-24T01:27:33;20.90;67.10
2226;DHT22;1119;48.288;8.726;2023-07-24T01:30:01;20.90;66.80
2226;DHT22;1119;48.288;8.726;2023-07-24T01:32:28;20.90;66.30
2226;DHT22;1119;48.288;8.726;2023-07-24T01:34:56;20.90;66.80
2226;DHT22;1119;48.288;8.726;2023-07-24T01:37:25;21.00;66.80
2226;DHT22;1119;48.288;8.726;2023-07-24T01:39:53;21.00;67.10
2226;DHT22;1119;48.288;8.726;2023-07-24T01:42:20;20.90;67.90
2226;DHT22;1119;48.288;8.726;2023-07-24T01:44:52;20.80;67.50
2226;DHT22;1119;48.288;8.726;2023-07-24T01:47:20;20.80;67.00
2226;DHT22;1119;48.288;8.726;2023-07-24T01:49:48;20.80;66.90
2226;DHT22;1119;48.288;8.726;2023-07-24T01:52:15;20.80;68.10
2226;DHT22;1119;48.288;8.726;2023-07-24T01:54:42;20.90;67.70
2226;DHT22;1119;48.288;8.726;2023-07-24T01:57:10;20.80;67.50
2226;DHT22;1119;48.288;8.726;2023-07-24T01:59:37;20.80;67.20
2226;DHT22;1119;48.288;8.726;2023-07-24T02:02:06;20.80;68.00
2226;DHT22;1119;48.288;8.726;2023-07-24T02:04:33;20.80;68.60
2226;DHT22;1119;48.288;8.726;2023-07-24T02:07:03;20.80;68.40
2226;DHT22;1119;48.288;8.726;2023-07-24T02:09:31;20.90;67.80
2226;DHT22;1119;48.288;8.726;2023-07-24T02:11:58;20.90;66.90
2226;DHT22;1119;48.288;8.726;2023-07-24T02:14:27;20.90;67.90
2226;DHT22;1119;48.288;8.726;2023-07-24T02:16:55;20.90;67.00
2226;DHT22;1119;48.288;8.726;2023-07-24T02:19:23;20.90;67.00
2226;DHT22;1119;48.288;8.726;2023-07-24T02:21:51;20.90;68.00
2226;DHT22;1119;48.288;8.726;2023-07-24T02:24:18;20.90;67.00
2226;DHT22;1119;48.288;8.726;2023-07-24T02:26:46;20.90;67.60
2226;DHT22;1119;48.288;8.726;2023-07-24T02:29:13;20.90;67.80
2226;DHT22;1119;48.288;8.726;2023-07-24T02:31:40;20.80;68.10
2226;DHT22;1119;48.288;8.726;2023-07-24T02:34:08;20.70;68.20
2226;DHT22;1119;48.288;8.726;2023-07-24T02:36:37;20.70;68.40
2226;DHT22;1119;48.288;8.726;2023-07-24T02:39:04;20.60;68.40
2226;DHT22;1119;48.288;8.726;2023-07-24T02:41:32;20.60;68.30
2226;DHT22;1119;48.288;8.726;2023-07-24T02:43:59;20.60;68.10
2226;DHT22;1119;48.288;8.726;2023-07-24T02:46:27;20.50;69.00
2226;DHT22;1119;48.288;8.726;2023-07-24T02:48:57;20.50;68.70
2226;DHT22;1119;48.288;8.726;2023-07-24T02:51:24;20.50;68.30
2226;DHT22;1119;48.288;8.726;2023-07-24T02:53:54;20.50;68.80
2226;DHT22;1119;48.288;8.726;2023-07-24T02:56:21;20.60;68.00
2226;DHT22;1119;48.288;8.726;2023-07-24T02:58:49;20.60;70.00
2226;DHT22;1119;48.288;8.726;2023-07-24T03:01:16;20.60;68.70
2226;DHT22;1119;48.288;8.726;2023-07-24T03:03:44;20.70;68.10
2226;DHT22;1119;48.288;8.726;2023-07-24T03:06:11;20.70;68.40
2226;DHT22;1119;48.288;8.726;2023-07-24T03:08:38;20.60;69.90
2226;DHT22;1119;48.288;8.726;2023-07-24T03:11:07;20.60;70.30
2226;DHT22;1119;48.288;8.726;2023-07-24T03:13:34;20.50;70.80
2226;DHT22;1119;48.288;8.726;2023-07-24T03:16:02;20.50;70.80
2226;DHT22;1119;48.288;8.726;2023-07-24T03:18:29;20.50;71.10
2226;DHT22;1119;48.288;8.726;2023-07-24T03:20:57;20.50;71.20
2226;DHT22;1119;48.288;8.726;2023-07-24T03:23:25;20.50;71.80
2226;DHT22;1119;48.288;8.726;2023-07-24T03:25:52;20.50;71.90
2226;DHT22;1119;48.288;8.726;2023-07-24T03:28:21;20.50;72.10
2226;DHT22;1119;48.288;8.726;2023-07-24T03:30:49;20.50;72.30
2226;DHT22;1119;48.288;8.726;2023-07-24T03:33:17;20.40;72.00
2226;DHT22;1119;48.288;8.726;2023-07-24T03:35:44;20.50;73.10
2226;DHT22;1119;48.288;8.726;2023-07-24T03:38:11;20.40;73.70
2226;DHT22;1119;48.288;8.726;2023-07-24T03:40:39;20.40;74.30
2226;DHT22;1119;48.288;8.726;2023-07-24T03:43:06;20.30;74.40
2226;DHT22;1119;48.288;8.726;2023-07-24T03:45:35;20.20;75.20
2226;DHT22;1119;48.288;8.726;2023-07-24T03:48:03;20.20;76.30
2226;DHT22;1119;48.288;8.726;2023-07-24T03:50:31;20.20;77.20
2226;DHT22;1119;48.288;8.726;2023-07-24T03:52:58;20.10;77.30
2226;DHT22;1119;48.288;8.726;2023-07-24T03:55:25;20.10;77.20
2226;DHT22;1119;48.288;8.726;2023-07-24T03:57:53;20.10;78.40
2226;DHT22;1119;48.288;8.726;2023-07-24T04:00:20;20.00;78.70
2226;DHT22;1119;48.288;8.726;2023-07-24T04:02:49;20.00;79.10
2226;DHT22;1119;48.288;8.726;2023-07-24T04:05:16;20.00;78.80
2226;DHT22;1119;48.288;8.726;2023-07-24T04:07:43;20.00;79.00
2226;DHT22;1119;48.288;8.726;2023-07-24T04:10:11;20.00;79.30
2226;DHT22;1119;48.288;8.726;2023-07-24T04:12:38;19.90;78.70
2226;DHT22;1119;48.288;8.726;2023-07-24T04:15:07;20.00;77.80
2226;DHT22;1119;48.288;8.726;2023-07-24T04:17:34;20.10;77.40
2226;DHT22;1119;48.288;8.726;2023-07-24T04:20:03;20.20;78.40
2226;DHT22;1119;48.288;8.726;2023-07-24T04:22:32;20.20;77.40
2226;DHT22;1119;48.288;8.726;2023-07-24T04:24:59;20.20;77.70
2226;DHT22;1119;48.288;8.726;2023-07-24T04:27:26;20.30;78.20
2226;DHT22;1119;48.288;8.726;2023-07-24T04:29:54;20.30;78.40
2226;DHT22;1119;48.288;8.726;2023-07-24T04:32:21;20.20;78.90
2226;DHT22;1119;48.288;8.726;2023-07-24T04:34:49;20.10;79.00
2226;DHT22;1119;48.288;8.726;2023-07-24T04:37:17;20.00;79.90
2226;DHT22;1119;48.288;8.726;2023-07-24T04:39:44;20.00;80.30
2226;DHT22;1119;48.288;8.726;2023-07-24T04:42:12;20.00;80.70
2226;DHT22;1119;48.288;8.726;2023-07-24T04:44:39;20.00;80.60
2226;DHT22;1119;48.288;8.726;2023-07-24T04:47:06;20.00;81.00
2226;DHT22;1119;48.288;8.726;2023-07-24T04:49:34;20.00;80.40
2226;DHT22;1119;48.288;8.726;2023-07-24T04:52:01;20.10;81.00
2226;DHT22;1119;48.288;8.726;2023-07-24T04:54:30;20.10;81.20
2226;DHT22;1119;48.288;8.726;2023-07-24T04:56:57;20.10;80.50
2226;DHT22;1119;48.288;8.726;2023-07-24T04:59:25;20.10;80.60
2226;DHT22;1119;48.288;8.726;2023-07-24T05:01:52;20.20;81.10
2226;DHT22;1119;48.288;8.726;2023-07-24T05:04:19;20.20;81.20
2226;DHT22;1119;48.288;8.726;2023-07-24T05:06:46;20.30;81.40
2226;DHT22;1119;48.288;8.726;2023-07-24T05:09:14;20.30;81.00
2226;DHT22;1119;48.288;8.726;2023-07-24T05:11:42;20.20;81.40
2226;DHT22;1119;48.288;8.726;2023-07-24T05:14:10;20.20;81.80
2226;DHT22;1119;48.288;8.726;2023-07-24T05:16:38;20.20;82.40
2226;DHT22;1119;48.288;8.726;2023-07-24T05:19:05;20.10;83.30
2226;DHT22;1119;48.288;8.726;2023-07-24T05:21:32;20.10;83.40
2226;DHT22;1119;48.288;8.726;2023-07-24T05:24:00;20.00;83.70
2226;DHT22;1119;48.288;8.726;2023-07-24T05:26:27;20.00;84.80
2226;DHT22;1119;48.288;8.726;2023-07-24T05:28:56;20.00;84.80
2226;DHT22;1119;48.288;8.726;2023-07-24T05:31:23;20.00;85.30
2226;DHT22;1119;48.288;8.726;2023-07-24T05:33:50;20.00;86.00
2226;DHT22;1119;48.288;8.726;2023-07-24T05:36:18;19.90;85.80
2226;DHT22;1119;48.288;8.726;2023-07-24T05:38:45;20.00;86.80
2226;DHT22;1119;48.288;8.726;2023-07-24T05:41:12;20.00;87.70
2226;DHT22;1119;48.288;8.726;2023-07-24T05:43:39;20.00;87.40
2226;DHT22;1119;48.288;8.726;2023-07-24T05:46:08;20.00;88.10
2226;DHT22;1119;48.288;8.726;2023-07-24T05:48:35;20.10;88.30
2226;DHT22;1119;48.288;8.726;2023-07-24T05:51:03;20.10;89.20
2226;DHT22;1119;48.288;8.726;2023-07-24T05:53:30;20.20;90.00
2226;DHT22;1119;48.288;8.726;2023-07-24T05:55:58;20.20;90.30
2226;DHT22;1119;48.288;8.726;2023-07-24T05:58:26;20.30;91.80
2226;DHT22;1119;48.288;8.726;2023-07-24T06:00:54;20.30;91.30
2226;DHT22;1119;48.288;8.726;2023-07-24T06:03:23;20.30;91.60
2226;DHT22;1119;48.288;8.726;2023-07-24T06:05:51;20.30;91.60
2226;DHT22;1119;48.288;8.726;2023-07-24T06:08:19;20.40;91.80
2226;DHT22;1119;48.288;8.726;2023-07-24T06:10:47;20.40;91.80
2226;DHT22;1119;48.288;8.726;2023-07-24T06:13:15;20.40;91.80
2226;DHT22;1119;48.288;8.726;2023-07-24T06:15:42;20.40;92.50
2226;DHT22;1119;48.288;8.726;2023-07-24T06:18:10;20.40;92.60
2226;DHT22;1119;48.288;8.726;2023-07-24T06:20:39;20.40;91.80
2226;DHT22;1119;48.288;8.726;2023-07-24T06:23:06;20.50;92.80
2226;DHT22;1119;48.288;8.726;2023-07-24T06:25:33;20.50;92.80
2226;DHT22;1119;48.288;8.726;2023-07-24T06:28:01;20.50;93.00
2226;DHT22;1119;48.288;8.726;2023-07-24T06:30:28;20.60;93.60
2226;DHT22;1119;48.288;8.726;2023-07-24T06:32:55;20.60;93.60
2226;DHT22;1119;48.288;8.726;2023-07-24T06:35:23;20.60;93.80
2226;DHT22;1119;48.288;8.726;2023-07-24T06:37:51;20.60;93.50
2226;DHT22;1119;48.288;8.726;2023-07-24T06:40:19;20.70;93.20
2226;DHT22;1119;48.288;8.726;2023-07-24T06:42:46;20.70;93.00
2226;DHT22;1119;48.288;8.726;2023-07-24T06:45:13;20.80;93.30
2226;DHT22;1119;48.288;8.726;2023-07-24T06:47:41;20.90;92.70
2226;DHT22;1119;48.288;8.726;2023-07-24T06:50:08;20.90;92.80
2226;DHT22;1119;48.288;8.726;2023-07-24T06:52:36;21.00;92.60
2226;DHT22;1119;48.288;8.726;2023-07-24T06:55:05;21.10;92.10
2226;DHT22;1119;48.288;8.726;2023-07-24T06:57:33;21.20;91.40
2226;DHT22;1119;48.288;8.726;2023-07-24T07:00:01;21.20;90.80
2226;DHT22;1119;48.288;8.726;2023-07-24T07:02:29;21.20;90.90
2226;DHT22;1119;48.288;8.726;2023-07-24T07:04:56;21.30;90.80
2226;DHT22;1119;48.288;8.726;2023-07-24T07:07:24;21.60;90.10
2226;DHT22;1119;48.288;8.726;2023-07-24T07:09:56;21.90;89.00
2226;DHT22;1119;48.288;8.726;2023-07-24T07:12:49;22.30;88.10
2226;DHT22;1119;48.288;8.726;2023-07-24T07:15:16;22.60;87.20
2226;DHT22;1119;48.288;8.726;2023-07-24T07:17:43;22.70;85.60
2226;DHT22;1119;48.288;8.726;2023-07-24T07:20:11;22.80;84.80
2226;DHT22;1119;48.288;8.726;2023-07-24T07:22:38;23.00;84.30
2226;DHT22;1119;48.288;8.726;2023-07-24T07:25:06;23.20;83.30
2226;DHT22;1119;48.288;8.726;2023-07-24T07:27:33;23.30;83.20
2226;DHT22;1119;48.288;8.726;2023-07-24T07:30:02;23.20;82.60
2226;DHT22;1119;48.288;8.726;2023-07-24T07:32:31;23.20;82.20
2226;DHT22;1119;48.288;8.726;2023-07-24T07:34:59;23.10;81.50
2226;DHT22;1119;48.288;8.726;2023-07-24T07:37:26;22.90;82.10
2226;DHT22;1119;48.288;8.726;2023-07-24T07:39:53;22.80;82.50
2226;DHT22;1119;48.288;8.726;2023-07-24T07:42:21;22.60;81.80
2226;DHT22;1119;48.288;8.726;2023-07-24T07:44:48;22.50;82.30
2226;DHT22;1119;48.288;8.726;2023-07-24T07:47:17;22.40;82.20
2226;DHT22;1119;48.288;8.726;2023-07-24T07:49:44;22.50;82.00
2226;DHT22;1119;48.288;8.726;2023-07-24T07:52:12;22.40;82.50
2226;DHT22;1119;48.288;8.726;2023-07-24T07:54:46;22.40;82.30
2226;DHT22;1119;48.288;8.726;2023-07-24T07:57:13;22.30;83.00
2226;DHT22;1119;48.288;8.726;2023-07-24T07:59:42;22.30;82.50
2226;DHT22;1119;48.288;8.726;2023-07-24T08:02:09;22.30;83.50
2226;DHT22;1119;48.288;8.726;2023-07-24T08:04:38;22.30;82.30
2226;DHT22;1119;48.288;8.726;2023-07-24T08:07:05;22.30;82.60
2226;DHT22;1119;48.288;8.726;2023-07-24T08:09:33;22.30;81.80
2226;DHT22;1119;48.288;8.726;2023-07-24T08:12:02;22.40;82.60
2226;DHT22;1119;48.288;8.726;2023-07-24T08:14:30;22.50;83.10
2226;DHT22;1119;48.288;8.726;2023-07-24T08:16:57;22.70;82.50
2226;DHT22;1119;48.288;8.726;2023-07-24T08:19:28;22.80;82.30
2226;DHT22;1119;48.288;8.726;2023-07-24T08:21:56;22.90;81.90
2226;DHT22;1119;48.288;8.726;2023-07-24T08:24:24;22.90;81.80
2226;DHT22;1119;48.288;8.726;2023-07-24T08:26:51;22.80;81.10
2226;DHT22;1119;48.288;8.726;2023-07-24T08:29:19;22.70;82.00
2226;DHT22;1119;48.288;8.726;2023-07-24T08:31:46;22.60;85.00
2226;DHT22;1119;48.288;8.726;2023-07-24T08:34:13;22.50;86.30
2226;DHT22;1119;48.288;8.726;2023-07-24T08:36:41;22.50;86.90
2226;DHT22;1119;48.288;8.726;2023-07-24T08:39:09;22.40;90.70
2226;DHT22;1119;48.288;8.726;2023-07-24T08:41:37;22.40;91.70
2226;DHT22;1119;48.288;8.726;2023-07-24T08:44:05;22.30;91.40
2226;DHT22;1119;48.288;8.726;2023-07-24T08:46:35;22.30;92.50
2226;DHT22;1119;48.288;8.726;2023-07-24T08:49:04;22.00;92.80
2226;DHT22;1119;48.288;8.726;2023-07-24T08:51:33;21.90;93.20
2226;DHT22;1119;48.288;8.726;2023-07-24T08:54:01;21.90;93.50
2226;DHT22;1119;48.288;8.726;2023-07-24T08:56:31;21.90;93.20
2226;DHT22;1119;48.288;8.726;2023-07-24T08:58:58;21.90;92.50
2226;DHT22;1119;48.288;8.726;2023-07-24T09:01:26;21.90;91.40
2226;DHT22;1119;48.288;8.726;2023-07-24T09:03:53;21.90;91.50
2226;DHT22;1119;48.288;8.726;2023-07-24T09:06:20;21.90;90.70
2226;DHT22;1119;48.288;8.726;2023-07-24T09:08:48;22.00;92.10
2226;DHT22;1119;48.288;8.726;2023-07-24T09:11:15;22.10;90.60
2226;DHT22;1119;48.288;8.726;2023-07-24T09:13:44;22.10;90.90
2226;DHT22;1119;48.288;8.726;2023-07-24T09:16:21;22.10;90.90
2226;DHT22;1119;48.288;8.726;2023-07-24T09:18:49;22.10;89.90
2226;DHT22;1119;48.288;8.726;2023-07-24T09:21:27;22.10;88.10
2226;DHT22;1119;48.288;8.726;2023-07-24T09:23:55;22.00;88.40
2226;DHT22;1119;48.288;8.726;2023-07-24T09:26:23;22.10;88.60
2226;DHT22;1119;48.288;8.726;2023-07-24T09:28:55;22.10;88.10
2226;DHT22;1119;48.288;8.726;2023-07-24T09:31:22;22.10;90.00
2226;DHT22;1119;48.288;8.726;2023-07-24T09:34:01;22.00;89.50
2226;DHT22;1119;48.288;8.726;2023-07-24T09:36:37;21.90;90.60
2226;DHT22;1119;48.288;8.726;2023-07-24T09:39:04;21.70;92.50
2226;DHT22;1119;48.288;8.726;2023-07-24T09:41:36;21.50;91.90
2226;DHT22;1119;48.288;8.726;2023-07-24T09:44:05;21.30;94.60
2226;DHT22;1119;48.288;8.726;2023-07-24T09:46:32;21.20;96.80
2226;DHT22;1119;48.288;8.726;2023-07-24T09:49:00;21.00;96.20
2226;DHT22;1119;48.288;8.726;2023-07-24T09:51:29;20.90;96.90
2226;DHT22;1119;48.288;8.726;2023-07-24T09:54:04;20.90;98.20
2226;DHT22;1119;48.288;8.726;2023-07-24T09:56:34;20.80;98.80
2226;DHT22;1119;48.288;8.726;2023-07-24T09:59:04;20.80;98.50
2226;DHT22;1119;48.288;8.726;2023-07-24T10:01:32;20.60;98.60
2226;DHT22;1119;48.288;8.726;2023-07-24T10:04:01;20.60;99.90
2226;DHT22;1119;48.288;8.726;2023-07-24T10:06:29;20.40;99.90
2226;DHT22;1119;48.288;8.726;2023-07-24T10:08:57;20.20;99.90
2226;DHT22;1119;48.288;8.726;2023-07-24T10:11:26;20.00;99.90
2226;DHT22;1119;48.288;8.726;2023-07-24T10:13:54;20.00;99.90
2226;DHT22;1119;48.288;8.726;2023-07-24T10:16:23;19.80;99.90
2226;DHT22;1119;48.288;8.726;2023-07-24T10:18:50;19.70;99.90
2226;DHT22;1119;48.288;8.726;2023-07-24T10:21:17;19.60;99.90
2226;DHT22;1119;48.288;8.726;2023-07-24T10:23:45;19.60;99.90
2226;DHT22;1119;48.288;8.726;2023-07-24T10:26:14;19.60;99.90
2226;DHT22;1119;48.288;8.726;2023-07-24T10:28:42;19.70;99.90
2226;DHT22;1119;48.288;8.726;2023-07-24T10:31:20;19.80;99.90
2226;DHT22;1119;48.288;8.726;2023-07-24T10:33:50;19.80;99.90
2226;DHT22;1119;48.288;8.726;2023-07-24T10:36:19;19.80;99.90
2226;DHT22;1119;48.288;8.726;2023-07-24T10:38:53;19.80;99.90
2226;DHT22;1119;48.288;8.726;2023-07-24T10:41:21;19.80;99.90
2226;DHT22;1119;48.288;8.726;2023-07-24T10:43:50;19.80;99.90
2226;DHT22;1119;48.288;8.726;2023-07-24T10:46:19;19.70;99.90
2226;DHT22;1119;48.288;8.726;2023-07-24T10:48:50;19.60;99.90
2226;DHT22;1119;48.288;8.726;2023-07-24T10:51:18;19.40;99.90
2226;DHT22;1119;48.288;8.726;2023-07-24T10:53:46;19.30;99.90
2226;DHT22;1119;48.288;8.726;2023-07-24T10:56:16;19.20;99.90
2226;DHT22;1119;48.288;8.726;2023-07-24T10:58:43;19.10;99.90
2226;DHT22;1119;48.288;8.726;2023-07-24T11:01:11;19.10;99.90
2226;DHT22;1119;48.288;8.726;2023-07-24T11:03:41;19.20;99.90
2226;DHT22;1119;48.288;8.726;2023-07-24T11:06:14;19.30;99.90
2226;DHT22;1119;48.288;8.726;2023-07-24T11:08:50;19.50;99.90
2226;DHT22;1119;48.288;8.726;2023-07-24T11:11:18;19.70;99.90
2226;DHT22;1119;48.288;8.726;2023-07-24T11:13:45;19.90;99.90
2226;DHT22;1119;48.288;8.726;2023-07-24T11:16:12;20.10;99.90
2226;DHT22;1119;48.288;8.726;2023-07-24T11:18:47;20.40;99.90
2226;DHT22;1119;48.288;8.726;2023-07-24T11:21:16;20.50;99.90
2226;DHT22;1119;48.288;8.726;2023-07-24T11:23:48;20.60;99.90
2226;DHT22;1119;48.288;8.726;2023-07-24T11:26:18;20.70;99.90
2226;DHT22;1119;48.288;8.726;2023-07-24T11:28:46;20.90;99.90
2226;DHT22;1119;48.288;8.726;2023-07-24T11:31:14;21.10;99.90
2226;DHT22;1119;48.288;8.726;2023-07-24T11:33:45;21.30;99.90
2226;DHT22;1119;48.288;8.726;2023-07-24T11:36:13;21.30;99.90
2226;DHT22;1119;48.288;8.726;2023-07-24T11:38:44;21.40;99.90
2226;DHT22;1119;48.288;8.726;2023-07-24T11:41:13;21.60;99.90
2226;DHT22;1119;48.288;8.726;2023-07-24T11:43:46;21.70;99.90
2226;DHT22;1119;48.288;8.726;2023-07-24T11:46:23;21.80;99.90
2226;DHT22;1119;48.288;8.726;2023-07-24T11:48:51;21.90;99.90
2226;DHT22;1119;48.288;8.726;2023-07-24T11:51:20;22.00;99.90
2226;DHT22;1119;48.288;8.726;2023-07-24T11:53:50;22.10;99.90
2226;DHT22;1119;48.288;8.726;2023-07-24T11:56:19;22.20;99.90
2226;DHT22;1119;48.288;8.726;2023-07-24T11:58:47;22.30;99.90
2226;DHT22;1119;48.288;8.726;2023-07-24T12:01:15;22.50;99.90
2226;DHT22;1119;48.288;8.726;2023-07-24T12:03:43;22.50;99.90
2226;DHT22;1119;48.288;8.726;2023-07-24T12:06:14;22.50;99.90
2226;DHT22;1119;48.288;8.726;2023-07-24T12:08:44;22.40;99.90
2226;DHT22;1119;48.288;8.726;2023-07-24T12:11:16;22.30;99.90
2226;DHT22;1119;48.288;8.726;2023-07-24T12:13:44;22.00;99.80
2226;DHT22;1119;48.288;8.726;2023-07-24T12:16:11;21.90;99.90
2226;DHT22;1119;48.288;8.726;2023-07-24T12:18:38;21.90;99.90
2226;DHT22;1119;48.288;8.726;2023-07-24T12:21:06;21.90;99.90
2226;DHT22;1119;48.288;8.726;2023-07-24T12:23:33;21.90;99.90
2226;DHT22;1119;48.288;8.726;2023-07-24T12:26:02;22.00;99.90
2226;DHT22;1119;48.288;8.726;2023-07-24T12:28:29;21.90;99.90
2226;DHT22;1119;48.288;8.726;2023-07-24T12:30:57;21.90;99.90
2226;DHT22;1119;48.288;8.726;2023-07-24T12:33:24;22.00;99.90
2226;DHT22;1119;48.288;8.726;2023-07-24T12:35:52;22.20;99.90
2226;DHT22;1119;48.288;8.726;2023-07-24T12:38:20;22.40;99.70
2226;DHT22;1119;48.288;8.726;2023-07-24T12:40:47;22.60;99.20
2226;DHT22;1119;48.288;8.726;2023-07-24T12:43:16;22.80;99.00
2226;DHT22;1119;48.288;8.726;2023-07-24T12:45:43;23.00;98.50
2226;DHT22;1119;48.288;8.726;2023-07-24T12:48:11;23.20;98.40
2226;DHT22;1119;48.288;8.726;2023-07-24T12:50:38;23.10;98.00
2226;DHT22;1119;48.288;8.726;2023-07-24T12:53:05;23.00;97.90
2226;DHT22;1119;48.288;8.726;2023-07-24T12:55:32;22.90;97.70
2226;DHT22;1119;48.288;8.726;2023-07-24T12:58:00;22.90;97.60
2226;DHT22;1119;48.288;8.726;2023-07-24T13:00:30;22.80;97.80
2226;DHT22;1119;48.288;8.726;2023-07-24T13:02:57;22.80;98.40
2226;DHT22;1119;48.288;8.726;2023-07-24T13:05:24;22.70;98.60
2226;DHT22;1119;48.288;8.726;2023-07-24T13:07:52;22.50;97.00
2226;DHT22;1119;48.288;8.726;2023-07-24T13:10:19;22.40;97.90
2226;DHT22;1119;48.288;8.726;2023-07-24T13:12:47;22.30;98.50
2226;DHT22;1119;48.288;8.726;2023-07-24T13:15:14;22.10;98.20
2226;DHT22;1119;48.288;8.726;2023-07-24T13:17:43;21.90;98.30
2226;DHT22;1119;48.288;8.726;2023-07-24T13:20:11;21.80;98.90
2226;DHT22;1119;48.288;8.726;2023-07-24T13:22:39;21.60;99.30
2226;DHT22;1119;48.288;8.726;2023-07-24T13:25:07;21.40;99.90
2226;DHT22;1119;48.288;8.726;2023-07-24T13:27:34;21.20;99.90
2226;DHT22;1119;48.288;8.726;2023-07-24T13:30:02;21.00;99.90
2226;DHT22;1119;48.288;8.726;2023-07-24T13:32:31;20.80;99.90
2226;DHT22;1119;48.288;8.726;2023-07-24T13:34:59;20.70;99.90
2226;DHT22;1119;48.288;8.726;2023-07-24T13:37:27;20.70;99.90
2226;DHT22;1119;48.288;8.726;2023-07-24T13:39:54;20.70;99.90
2226;DHT22;1119;48.288;8.726;2023-07-24T13:42:21;20.70;99.90
2226;DHT22;1119;48.288;8.726;2023-07-24T13:44:49;20.80;99.90
2226;DHT22;1119;48.288;8.726;2023-07-24T13:47:16;20.70;99.90
2226;DHT22;1119;48.288;8.726;2023-07-24T13:49:43;20.70;99.90
2226;DHT22;1119;48.288;8.726;2023-07-24T13:52:12;20.70;99.90
2226;DHT22;1119;48.288;8.726;2023-07-24T13:54:39;20.60;99.90
2226;DHT22;1119;48.288;8.726;2023-07-24T13:57:07;20.50;99.90
2226;DHT22;1119;48.288;8.726;2023-07-24T13:59:34;20.30;99.90
2226;DHT22;1119;48.288;8.726;2023-07-24T14:02:04;20.10;99.90
2226;DHT22;1119;48.288;8.726;2023-07-24T14:04:31;19.90;99.90
2226;DHT22;1119;48.288;8.726;2023-07-24T14:06:59;19.70;99.90
2226;DHT22;1119;48.288;8.726;2023-07-24T14:13:53;19.50;99.90
2226;DHT22;1119;48.288;8.726;2023-07-24T14:20:52;19.40;99.90
2226;DHT22;1119;48.288;8.726;2023-07-24T14:23:21;19.20;99.90
2226;DHT22;1119;48.288;8.726;2023-07-24T14:25:48;19.20;99.90
2226;DHT22;1119;48.288;8.726;2023-07-24T14:28:16;19.20;99.90
2226;DHT22;1119;48.288;8.726;2023-07-24T14:30:44;19.20;99.90
2226;DHT22;1119;48.288;8.726;2023-07-24T14:33:12;19.30;99.90
2226;DHT22;1119;48.288;8.726;2023-07-24T14:35:39;19.40;99.90
2226;DHT22;1119;48.288;8.726;2023-07-24T14:38:06;19.50;99.90
2226;DHT22;1119;48.288;8.726;2023-07-24T14:40:34;19.50;99.90
2226;DHT22;1119;48.288;8.726;2023-07-24T14:43:02;19.60;99.90
2226;DHT22;1119;48.288;8.726;2023-07-24T14:45:29;19.70;99.90
2226;DHT22;1119;48.288;8.726;2023-07-24T14:47:58;19.70;99.90
2226;DHT22;1119;48.288;8.726;2023-07-24T14:50:26;19.70;99.90
2226;DHT22;1119;48.288;8.726;2023-07-24T14:52:53;19.70;99.90
2226;DHT22;1119;48.288;8.726;2023-07-24T14:55:20;19.90;99.90
2226;DHT22;1119;48.288;8.726;2023-07-24T14:57:48;20.10;99.90
2226;DHT22;1119;48.288;8.726;2023-07-24T15:00:16;20.30;99.90
2226;DHT22;1119;48.288;8.726;2023-07-24T15:02:44;20.40;99.90
2226;DHT22;1119;48.288;8.726;2023-07-24T15:05:12;20.50;99.90
2226;DHT22;1119;48.288;8.726;2023-07-24T15:07:40;20.40;99.90
2226;DHT22;1119;48.288;8.726;2023-07-24T15:14:38;20.50;99.90
2226;DHT22;1119;48.288;8.726;2023-07-24T15:17:06;20.40;99.90
2226;DHT22;1119;48.288;8.726;2023-07-24T15:19:33;20.30;99.90
2226;DHT22;1119;48.288;8.726;2023-07-24T15:22:02;20.30;99.90
2226;DHT22;1119;48.288;8.726;2023-07-24T15:24:29;20.30;99.90
2226;DHT22;1119;48.288;8.726;2023-07-24T15:26:57;20.40;99.90
2226;DHT22;1119;48.288;8.726;2023-07-24T15:29:24;20.50;99.90
2226;DHT22;1119;48.288;8.726;2023-07-24T15:31:51;20.60;99.90
2226;DHT22;1119;48.288;8.726;2023-07-24T15:34:21;20.60;99.90
2226;DHT22;1119;48.288;8.726;2023-07-24T15:36:49;20.60;99.90
2226;DHT22;1119;48.288;8.726;2023-07-24T15:39:17;20.70;99.90
2226;DHT22;1119;48.288;8.726;2023-07-24T15:41:45;20.80;99.90
2226;DHT22;1119;48.288;8.726;2023-07-24T15:44:13;20.80;99.90
2226;DHT22;1119;48.288;8.726;2023-07-24T15:46:40;20.80;99.90
2226;DHT22;1119;48.288;8.726;2023-07-24T15:49:08;20.80;99.90
2226;DHT22;1119;48.288;8.726;2023-07-24T15:51:35;20.80;99.90
2226;DHT22;1119;48.288;8.726;2023-07-24T15:54:03;20.90;99.90
2226;DHT22;1119;48.288;8.726;2023-07-24T15:56:35;20.80;99.90
2226;DHT22;1119;48.288;8.726;2023-07-24T15:59:02;20.80;99.90
2226;DHT22;1119;48.288;8.726;2023-07-24T16:01:30;20.70;99.90
2226;DHT22;1119;48.288;8.726;2023-07-24T16:03:57;20.60;99.90
2226;DHT22;1119;48.288;8.726;2023-07-24T16:06:25;20.70;99.90
2226;DHT22;1119;48.288;8.726;2023-07-24T16:08:52;20.60;99.90
2226;DHT22;1119;48.288;8.726;2023-07-24T16:11:19;20.60;99.90
2226;DHT22;1119;48.288;8.726;2023-07-24T16:13:48;20.60;99.90
2226;DHT22;1119;48.288;8.726;2023-07-24T16:16:15;20.70;99.90
2226;DHT22;1119;48.288;8.726;2023-07-24T16:18:43;20.70;99.90
2226;DHT22;1119;48.288;8.726;2023-07-24T16:21:10;20.80;99.90